Time;durP1;ratioP1;P1;durP2;ratioP2;P2;SDS_P1;SDS_P2;PMS_P1;PMS_P2;Temp;Humidity;BMP_temperature;BMP_pressure;BME280_temperature;BME280_humidity;BME280_pressure;Samples;Min_cycle;Max_cycle;Signal;HPM_P1;HPM_P2
2023/04/03 00:00:34;;;;;;;0.20;0.20;;;;;;;5.26;68.65;99719.19;5116308;28;20043;-66
2023/04/03 00:03:03;;;;;;;0.30;0.30;;;;;;;5.23;68.93;99724.19;5116637;28;20123;-66
2023/04/03 00:05:34;;;;;;;1.20;1.07;;;;;;;5.27;69.01;99725.13;5116259;28;20043;-66
2023/04/03 00:08:04;;;;;;;0.40;0.40;;;;;;;5.28;69.13;99722.59;5116284;28;20055;-66
2023/04/03 00:10:33;;;;;;;0.70;0.60;;;;;;;5.30;68.76;99727.72;5116253;28;20074;-67
2023/04/03 00:13:02;;;;;;;0.40;0.40;;;;;;;5.30;68.99;99730.25;5116144;27;20058;-67
2023/04/03 00:15:31;;;;;;;1.33;0.75;;;;;;;5.30;68.95;99731.06;5115936;28;20075;-66
2023/04/03 00:18:00;;;;;;;0.50;0.50;;;;;;;5.27;68.89;99735.22;5116671;28;20075;-66
2023/04/03 00:20:29;;;;;;;0.22;0.22;;;;;;;5.26;69.15;99731.84;5116057;28;20040;-66
2023/04/03 00:23:00;;;;;;;0.57;0.57;;;;;;;5.28;69.10;99727.66;5115950;28;20035;-66
2023/04/03 00:25:28;;;;;;;0.63;0.63;;;;;;;5.27;69.03;99733.56;5116226;28;20130;-66
2023/04/03 00:27:57;;;;;;;7.50;0.93;;;;;;;5.25;69.39;99726.75;5116192;28;20048;-66
2023/04/03 00:30:27;;;;;;;0.30;0.30;;;;;;;5.30;69.26;99731.06;5114700;28;20304;-66
2023/04/03 00:32:56;;;;;;;0.20;0.20;;;;;;;5.25;69.26;99717.50;5115786;28;20558;-66
2023/04/03 00:35:25;;;;;;;0.47;0.47;;;;;;;5.39;69.11;99727.91;5114488;28;20054;-65
2023/04/03 00:37:55;;;;;;;0.32;0.32;;;;;;;5.37;69.17;99737.16;5114461;28;20047;-65
2023/04/03 00:40:27;;;;;;;0.57;0.57;;;;;;;5.36;69.07;99731.22;5114643;28;20457;-65
2023/04/03 00:42:59;;;;;;;0.68;0.68;;;;;;;5.32;69.15;99734.53;5114399;28;20156;-65
2023/04/03 00:45:33;;;;;;;0.45;0.45;;;;;;;5.35;69.60;99737.09;5115629;28;20130;-65
2023/04/03 00:48:06;;;;;;;0.40;0.40;;;;;;;5.35;69.62;99739.63;5115569;28;20053;-65
2023/04/03 00:50:38;;;;;;;1.33;1.23;;;;;;;5.27;69.46;99723.44;5115726;28;20112;-65
2023/04/03 00:53:12;;;;;;;0.38;0.38;;;;;;;5.36;69.75;99740.47;5115720;28;20072;-66
2023/04/03 00:55:43;;;;;;;0.30;0.30;;;;;;;5.34;69.94;99740.47;5114319;28;20514;-65
2023/04/03 00:58:15;;;;;;;0.30;0.30;;;;;;;5.36;69.85;99736.28;5114790;28;20040;-65
2023/04/03 01:00:49;;;;;;;0.85;0.85;;;;;;;5.40;69.51;99735.50;5114932;28;20067;-65
2023/04/03 01:03:18;;;;;;;0.40;0.40;;;;;;;5.48;69.42;99729.75;5114351;28;20126;-66
2023/04/03 01:05:47;;;;;;;0.50;0.50;;;;;;;5.47;69.62;99733.94;5115014;28;20075;-66
2023/04/03 01:08:16;;;;;;;0.57;0.57;;;;;;;5.45;69.46;99727.19;5115337;28;20404;-66
2023/04/03 01:10:46;;;;;;;0.20;0.20;;;;;;;5.47;69.11;99717.94;5115318;28;20073;-66
2023/04/03 01:13:25;;;;;;;0.75;0.68;;;;;;;5.48;69.15;99719.63;5113760;28;20043;-66
2023/04/03 01:15:55;;;;;;;0.25;0.25;;;;;;;5.38;69.06;99716.06;5113315;28;20077;-66
2023/04/03 01:18:26;;;;;;;0.22;0.22;;;;;;;5.39;69.20;99720.31;5114255;28;20397;-66
2023/04/03 01:21:25;;;;;;;0.30;0.30;;;;;;;5.38;68.86;99724.50;5114779;28;20082;-66
2023/04/03 01:24:26;;;;;;;0.30;0.30;;;;;;;5.37;69.18;99719.44;5113610;28;20044;-66
2023/04/03 01:26:56;;;;;;;0.73;0.73;;;;;;;5.33;68.96;99723.56;5106620;28;20039;-66
2023/04/03 01:29:25;;;;;;;0.73;0.50;;;;;;;5.30;68.98;99720.13;5114604;28;20048;-66
2023/04/03 01:31:58;;;;;;;0.27;0.27;;;;;;;5.25;68.82;99722.56;5114599;28;20043;-66
2023/04/03 01:34:28;;;;;;;0.30;0.30;;;;;;;5.17;69.01;99721.53;5113768;28;20070;-67
2023/04/03 01:36:58;;;;;;;0.30;0.30;;;;;;;5.15;68.69;99718.13;5113641;28;20044;-66
2023/04/03 01:39:27;;;;;;;0.30;0.30;;;;;;;5.13;68.79;99717.25;5113308;28;20054;-65
2023/04/03 01:41:55;;;;;;;1.90;1.70;;;;;;;5.11;68.89;99720.56;5113514;28;20486;-65
2023/04/03 01:44:30;;;;;;;1.63;1.30;;;;;;;5.01;69.18;99711.91;5114472;28;20059;-65
2023/04/03 01:47:01;;;;;;;0.47;0.47;;;;;;;5.03;69.26;99714.47;5113400;28;20393;-65
2023/04/03 01:49:31;;;;;;;0.65;0.65;;;;;;;5.01;69.12;99706.88;5114705;28;20047;-66
2023/04/03 01:52:00;;;;;;;0.40;0.40;;;;;;;4.96;69.13;99707.56;5113138;28;20036;-66
2023/04/03 01:54:29;;;;;;;0.30;0.30;;;;;;;4.95;69.22;99706.72;5114559;28;20040;-66
2023/04/03 01:56:57;;;;;;;0.30;0.30;;;;;;;4.93;69.05;99708.38;5114126;28;20501;-66
2023/04/03 01:59:27;;;;;;;0.20;0.20;;;;;;;4.93;69.22;99708.38;5114218;28;20047;-66
2023/04/03 02:01:57;;;;;;;0.20;0.20;;;;;;;4.92;69.39;99701.59;5112938;28;20050;-66
2023/04/03 02:04:27;;;;;;;0.30;0.30;;;;;;;4.94;69.06;99709.22;5112980;28;20039;-66
2023/04/03 02:06:57;;;;;;;0.30;0.30;;;;;;;4.97;69.34;99715.19;5113123;28;20540;-65
2023/04/03 02:09:26;;;;;;;0.85;0.85;;;;;;;4.98;69.13;99711.84;5112834;28;20043;-65
2023/04/03 02:11:55;;;;;;;0.20;0.20;;;;;;;4.95;69.23;99711.78;5114416;28;20028;-66
2023/04/03 02:14:26;;;;;;;1.52;1.42;;;;;;;4.93;69.06;99715.09;5112570;28;20067;-66
2023/04/03 02:16:55;;;;;;;0.20;0.20;;;;;;;4.93;69.43;99712.56;5112867;28;20117;-66
2023/04/03 02:19:24;;;;;;;0.20;0.20;;;;;;;4.90;69.06;99715.88;5113930;28;20048;-65
2023/04/03 02:21:54;;;;;;;0.35;0.35;;;;;;;4.88;68.87;99715.00;5113851;28;20043;-65
2023/04/03 02:24:23;;;;;;;0.95;0.60;;;;;;;4.88;69.41;99730.16;5113936;28;20047;-66
2023/04/03 02:26:52;;;;;;;0.27;0.27;;;;;;;4.87;69.13;99723.38;5114194;28;20120;-65
2023/04/03 02:29:21;;;;;;;0.40;0.40;;;;;;;4.89;69.27;99726.81;5112674;28;20386;-66
2023/04/03 02:31:52;;;;;;;0.70;0.70;;;;;;;4.88;69.58;99720.03;5113911;28;20142;-67
2023/04/03 02:34:23;;;;;;;0.28;0.28;;;;;;;4.98;69.72;99732.06;5114115;28;20405;-66
2023/04/03 02:36:54;;;;;;;0.60;0.60;;;;;;;4.99;69.00;99723.66;5113872;28;20040;-67
2023/04/03 02:39:23;;;;;;;0.95;0.82;;;;;;;4.96;69.20;99723.59;5112574;28;20040;-66
2023/04/03 02:41:53;;;;;;;0.40;0.40;;;;;;;4.98;69.60;99731.22;5112509;28;20044;-66
2023/04/03 02:44:25;;;;;;;0.30;0.30;;;;;;;5.00;69.53;99720.31;5113805;28;20075;-66
2023/04/03 02:46:54;;;;;;;0.20;0.20;;;;;;;5.04;69.05;99727.13;5112774;28;20389;-66
2023/04/03 02:49:24;;;;;;;2.15;1.33;;;;;;;5.00;69.08;99715.25;5113879;28;20404;-65
2023/04/03 02:51:54;;;;;;;0.20;0.20;;;;;;;4.99;69.15;99721.13;5112543;28;20039;-66
2023/04/03 02:54:27;;;;;;;0.82;0.82;;;;;;;4.97;69.37;99720.25;5112492;28;20272;-66
2023/04/03 02:56:59;;;;;;;0.13;0.13;;;;;;;4.90;69.44;99723.47;5112470;28;20047;-66
2023/04/03 02:59:28;;;;;;;0.43;0.43;;;;;;;4.93;69.30;99732.78;5113567;28;20052;-66
2023/04/03 03:01:56;;;;;;;0.95;0.95;;;;;;;4.90;69.07;99728.50;5112658;28;20044;-65
2023/04/03 03:04:25;;;;;;;0.40;0.40;;;;;;;4.90;69.16;99736.09;5113559;28;20039;-66
2023/04/03 03:06:55;;;;;;;0.30;0.30;;;;;;;4.90;69.30;99735.25;5112455;28;20089;-66
2023/04/03 03:09:25;;;;;;;0.30;0.30;;;;;;;4.86;69.12;99741.91;5112593;28;20485;-65
2023/04/03 03:11:54;;;;;;;0.35;0.35;;;;;;;4.85;69.40;99735.13;5113550;28;20058;-65
2023/04/03 03:14:23;;;;;;;0.30;0.30;;;;;;;4.80;69.08;99741.75;5112019;28;20046;-66
2023/04/03 03:16:52;;;;;;;0.20;0.20;;;;;;;4.78;69.04;99738.34;5113496;28;20063;-66
2023/04/03 03:19:21;;;;;;;0.28;0.28;;;;;;;4.79;68.59;99740.06;5113669;28;20284;-65
2023/04/03 03:21:50;;;;;;;0.40;0.40;;;;;;;4.75;68.94;99738.31;5112641;28;20044;-65
2023/04/03 03:24:21;;;;;;;0.65;0.65;;;;;;;4.79;68.78;99744.25;5115933;28;20093;-67
2023/04/03 03:26:50;;;;;;;0.40;0.40;;;;;;;4.77;68.48;99736.66;5115920;28;20048;-65
2023/04/03 03:29:18;;;;;;;3.53;0.55;;;;;;;4.78;68.66;99748.47;5116140;28;20402;-65
2023/04/03 03:31:47;;;;;;;0.40;0.40;;;;;;;4.86;68.73;99752.03;5115806;28;20497;-65
2023/04/03 03:34:17;;;;;;;0.38;0.38;;;;;;;4.90;68.35;99746.22;5116868;28;20071;-65
2023/04/03 03:36:45;;;;;;;0.50;0.50;;;;;;;4.93;68.24;99755.53;5115971;28;20485;-64
2023/04/03 03:39:15;;;;;;;0.30;0.30;;;;;;;4.91;67.77;99752.13;5115616;28;20065;-66
2023/04/03 03:41:45;;;;;;;0.35;0.35;;;;;;;4.90;67.59;99751.28;5115608;28;20038;-65
2023/04/03 03:44:15;;;;;;;1.02;0.55;;;;;;;4.90;67.70;99758.84;5116729;28;20051;-65
2023/04/03 03:46:44;;;;;;;0.40;0.40;;;;;;;4.85;67.30;99754.53;5116542;28;20051;-65
2023/04/03 03:49:13;;;;;;;0.30;0.30;;;;;;;4.84;67.71;99747.75;5116594;28;20050;-66
2023/04/03 03:51:42;;;;;;;0.30;0.30;;;;;;;4.80;67.58;99754.41;5115339;28;20104;-66
2023/04/03 03:54:11;;;;;;;0.20;0.20;;;;;;;4.73;67.58;99750.03;5115356;28;20123;-65
2023/04/03 03:56:40;;;;;;;2.38;1.27;;;;;;;4.72;67.61;99763.50;5115498;28;20370;-65
2023/04/03 03:59:12;;;;;;;0.30;0.30;;;;;;;4.76;67.39;99762.75;5115503;28;20073;-66
2023/04/03 04:01:42;;;;;;;0.38;0.38;;;;;;;4.79;67.88;99767.88;5116147;28;20043;-66
2023/04/03 04:04:11;;;;;;;0.83;0.60;;;;;;;4.80;67.42;99767.03;5116674;28;20044;-66
2023/04/03 04:06:40;;;;;;;0.63;0.63;;;;;;;4.85;67.77;99774.75;5115096;28;20078;-67
2023/04/03 04:09:12;;;;;;;0.25;0.25;;;;;;;4.86;67.50;99767.19;5116286;28;20104;-66
2023/04/03 04:11:41;;;;;;;0.57;0.43;;;;;;;4.90;67.36;99768.97;5114836;28;20505;-66
2023/04/03 04:14:14;;;;;;;0.30;0.30;;;;;;;4.98;67.38;99770.00;5115863;28;20039;-67
2023/04/03 04:16:44;;;;;;;0.85;0.85;;;;;;;4.98;67.37;99772.53;5116096;28;20043;-67
2023/04/03 04:19:18;;;;;;;0.28;0.28;;;;;;;5.01;67.29;99774.28;5116045;28;20566;-65
2023/04/03 04:21:47;;;;;;;1.03;0.93;;;;;;;5.03;66.74;99770.97;5115035;28;20079;-66
2023/04/03 04:24:16;;;;;;;0.30;0.30;;;;;;;5.05;67.06;99781.13;5114642;28;20047;-66
2023/04/03 04:26:46;;;;;;;0.20;0.20;;;;;;;5.08;66.68;99774.47;5116131;28;20437;-67
2023/04/03 04:29:18;;;;;;;1.27;0.70;;;;;;;5.06;66.37;99770.19;5115881;27;20074;-65
2023/04/03 04:31:50;;;;;;;0.30;0.30;;;;;;;5.04;66.88;99771.84;5116087;28;20406;-66
2023/04/03 04:34:19;;;;;;;0.50;0.50;;;;;;;5.10;66.41;99777.88;5114544;28;20126;-67
2023/04/03 04:36:48;;;;;;;0.38;0.38;;;;;;;5.12;66.14;99776.22;5115729;28;20047;-65
2023/04/03 04:39:17;;;;;;;0.25;0.25;;;;;;;5.15;65.93;99781.38;5115653;28;20118;-65
2023/04/03 04:41:46;;;;;;;0.20;0.20;;;;;;;5.18;66.40;99790.69;5115405;28;20043;-67
2023/04/03 04:44:15;;;;;;;0.28;0.28;;;;;;;5.19;66.08;99788.19;5114349;28;20032;-65
2023/04/03 04:46:45;;;;;;;0.27;0.27;;;;;;;5.13;65.59;99790.59;5114174;28;20053;-65
2023/04/03 04:49:14;;;;;;;1.15;1.08;;;;;;;5.17;65.80;99789.84;5114584;28;20122;-65
2023/04/03 04:51:43;;;;;;;0.30;0.30;;;;;;;5.19;65.83;99790.72;5115660;28;20534;-65
2023/04/03 04:54:26;;;;;;;0.45;0.45;;;;;;;5.21;66.08;99790.75;5115371;28;20051;-65
2023/04/03 04:56:55;;;;;;;;;;;;;;;5.25;65.51;99790.88;5115815;28;20051;-65
2023/04/03 04:59:24;;;;;;;0.45;0.45;;;;;;;5.28;65.78;99793.44;5113440;28;19920;-65
2023/04/03 05:01:57;;;;;;;0.65;0.65;;;;;;;5.26;65.76;99790.03;5115136;28;20039;-65
2023/04/03 05:04:27;;;;;;;0.40;0.40;;;;;;;5.30;65.58;99791.81;5115129;28;20113;-65
2023/04/03 05:07:03;;;;;;;0.40;0.40;;;;;;;5.31;65.61;99798.59;5115290;28;20122;-66
2023/04/03 05:09:36;;;;;;;18.83;1.30;;;;;;;5.34;65.24;99801.19;5115075;28;20054;-65
2023/04/03 05:12:06;;;;;;;0.85;0.85;;;;;;;5.34;65.41;99798.66;5113891;28;20036;-66
2023/04/03 05:14:41;;;;;;;0.30;0.30;;;;;;;5.38;65.08;99805.50;5113499;28;20043;-66
2023/04/03 05:17:13;;;;;;;0.45;0.45;;;;;;;5.38;65.30;99810.53;5115127;28;20469;-65
2023/04/03 05:19:47;;;;;;;0.50;0.50;;;;;;;5.43;65.07;99813.19;5115087;28;20048;-66
2023/04/03 05:22:17;;;;;;;0.57;0.57;;;;;;;5.47;64.83;99809.88;5114686;28;20126;-66
2023/04/03 05:24:46;;;;;;;0.40;0.40;;;;;;;5.50;64.45;99811.63;5113520;28;20039;-66
2023/04/03 05:27:16;;;;;;;;;;;;;;;5.56;64.69;99824.41;5113771;28;20050;-65
2023/04/03 05:29:51;;;;;;;0.50;0.50;;;;;;;5.61;64.62;99832.97;5114704;28;19935;-66
2023/04/03 05:32:24;;;;;;;0.30;0.30;;;;;;;5.59;64.43;99830.38;5130913;27;20493;-66
2023/04/03 05:35:03;;;;;;;1.25;1.15;;;;;;;5.59;63.99;99829.56;5114647;28;20130;-65
2023/04/03 05:37:32;;;;;;;0.30;0.30;;;;;;;5.62;64.14;99844.78;5113219;28;20102;-65
2023/04/03 05:40:01;;;;;;;0.27;0.27;;;;;;;5.62;63.72;99844.78;5113248;28;20126;-68
2023/04/03 05:42:30;;;;;;;;;;;;;;;5.63;63.70;99849.03;5114732;28;20066;-66
2023/04/03 05:45:00;;;;;;;1.27;1.17;;;;;;;5.63;63.53;99851.56;5114324;28;20285;-66
2023/04/03 05:47:30;;;;;;;0.20;0.20;;;;;;;5.69;63.66;99851.69;5114668;28;20036;-66
2023/04/03 05:50:00;;;;;;;0.68;0.68;;;;;;;5.76;63.45;99866.22;5114917;28;20105;-66
2023/04/03 05:52:32;;;;;;;0.40;0.40;;;;;;;5.81;63.33;99857.88;5114580;28;20051;-66
2023/04/03 05:55:01;;;;;;;0.30;0.30;;;;;;;5.82;62.52;99857.06;5113105;28;20058;-65
2023/04/03 05:57:32;;;;;;;0.28;0.28;;;;;;;5.85;62.58;99864.78;5112989;28;20080;-66
2023/04/03 06:00:01;;;;;;;0.35;0.35;;;;;;;5.83;62.27;99868.88;5112833;28;20088;-66
2023/04/03 06:02:32;;;;;;;0.57;0.57;;;;;;;5.79;62.45;99869.66;5114275;28;20438;-66
2023/04/03 06:05:02;;;;;;;1.20;1.10;;;;;;;5.82;62.20;99863.81;5114233;28;20490;-66
2023/04/03 06:07:31;;;;;;;0.38;0.38;;;;;;;5.86;61.91;99863.06;5112825;28;20044;-65
2023/04/03 06:10:01;;;;;;;0.50;0.50;;;;;;;5.89;62.02;99870.75;5114366;28;20036;-65
2023/04/03 06:12:30;;;;;;;0.75;0.75;;;;;;;5.87;61.88;99869.84;5112786;28;20435;-65
2023/04/03 06:14:59;;;;;;;0.40;0.40;;;;;;;5.84;61.97;99863.06;5113917;28;20113;-66
2023/04/03 06:17:29;;;;;;;3.92;1.13;;;;;;;5.82;62.20;99859.59;5113798;28;20067;-65
2023/04/03 06:20:00;;;;;;;0.88;0.88;;;;;;;5.85;61.77;99858.84;5112936;28;20426;-66
2023/04/03 06:22:29;;;;;;;0.35;0.35;;;;;;;5.79;61.49;99856.13;5129715;28;20096;-65
2023/04/03 06:24:58;;;;;;;0.47;0.47;;;;;;;5.86;61.33;99870.66;5112938;28;20117;-65
2023/04/03 06:27:29;;;;;;;0.40;0.40;;;;;;;5.87;61.45;99860.59;5114128;28;20431;-65
2023/04/03 06:29:57;;;;;;;0.20;0.20;;;;;;;5.93;61.59;99862.38;5113774;28;20173;-66
2023/04/03 06:32:26;;;;;;;1.58;1.45;;;;;;;5.99;61.43;99862.50;5112828;28;20389;-64
2023/04/03 06:34:55;;;;;;;0.40;0.40;;;;;;;5.98;61.37;99860.78;5114140;28;20067;-65
2023/04/03 06:37:28;;;;;;;0.80;0.80;;;;;;;5.93;61.11;99863.22;5113664;28;20058;-65
2023/04/03 06:39:57;;;;;;;1.25;1.17;;;;;;;5.97;61.04;99869.22;5113798;28;20046;-66
2023/04/03 06:42:26;;;;;;;0.55;0.50;;;;;;;6.02;61.29;99870.19;5113873;28;20040;-66
2023/04/03 06:45:09;;;;;;;0.50;0.50;;;;;;;6.02;61.64;99867.66;5114029;28;20047;-67
2023/04/03 06:47:38;;;;;;;1.33;1.00;;;;;;;6.01;61.47;99861.72;5113969;28;20516;-65
2023/04/03 06:50:08;;;;;;;0.70;0.70;;;;;;;6.01;61.79;99865.94;5113612;28;20058;-65
2023/04/03 06:52:39;;;;;;;0.80;0.80;;;;;;;6.07;61.78;99871.97;5113504;28;20051;-65
2023/04/03 06:55:10;;;;;;;1.08;1.00;;;;;;;6.13;61.71;99868.72;5113863;28;20048;-66
2023/04/03 06:57:39;;;;;;;2.10;0.88;;;;;;;6.17;61.96;99880.59;5115843;28;20142;-66
2023/04/03 07:00:09;;;;;;;0.40;0.40;;;;;;;6.16;61.97;99875.50;5117913;28;20047;-66
2023/04/03 07:02:39;;;;;;;0.30;0.30;;;;;;;6.20;61.34;99882.34;5117759;28;20554;-66
2023/04/03 07:05:08;;;;;;;1.60;1.50;;;;;;;6.30;61.44;99871.56;5117711;28;20146;-65
2023/04/03 07:07:39;;;;;;;0.60;0.60;;;;;;;6.47;61.29;99873.59;5110479;28;20040;-65
2023/04/03 07:10:09;;;;;;;1.05;1.00;;;;;;;6.84;60.96;99876.81;5110465;28;20048;-67
2023/04/03 07:12:38;;;;;;;4.00;1.35;;;;;;;7.13;60.92;99880.66;5117200;28;20054;-66
2023/04/03 07:15:08;;;;;;;0.30;0.30;;;;;;;7.14;59.84;99885.78;5117233;28;20050;-66
2023/04/03 07:17:37;;;;;;;0.65;0.65;;;;;;;7.20;58.66;99887.53;5117006;28;20116;-65
2023/04/03 07:20:08;;;;;;;0.30;0.30;;;;;;;7.36;58.61;99887.81;5117182;28;20519;-65
2023/04/03 07:22:38;;;;;;;0.57;0.57;;;;;;;7.39;58.21;99881.91;5116934;28;20108;-66
2023/04/03 07:25:07;;;;;;;2.03;1.42;;;;;;;7.54;58.11;99882.13;5117121;28;20130;-69
2023/04/03 07:27:36;;;;;;;0.80;0.80;;;;;;;7.77;57.09;99888.41;5117251;28;20049;-68
2023/04/03 07:30:06;;;;;;;0.50;0.50;;;;;;;7.77;56.03;99890.97;5117077;28;20404;-67
2023/04/03 07:32:35;;;;;;;0.30;0.30;;;;;;;7.93;55.80;99892.88;5116885;28;20073;-66
2023/04/03 07:35:04;;;;;;;0.70;0.70;;;;;;;7.92;55.76;99886.06;5117229;28;20523;-64
2023/04/03 07:37:33;;;;;;;0.50;0.50;;;;;;;7.94;55.52;99894.56;5116772;28;20067;-66
2023/04/03 07:40:04;;;;;;;0.50;0.50;;;;;;;7.94;55.02;99894.56;5117114;28;20490;-65
2023/04/03 07:42:33;;;;;;;0.30;0.30;;;;;;;7.92;54.52;99880.97;5111302;28;20032;-66
2023/04/03 07:45:02;;;;;;;0.50;0.50;;;;;;;7.95;53.74;99890.34;5105946;28;20036;-67
2023/04/03 07:47:31;;;;;;;1.10;0.98;;;;;;;7.95;53.18;99888.66;5111543;28;20097;-67
2023/04/03 07:50:00;;;;;;;1.00;0.80;;;;;;;7.75;53.00;99897.69;5111374;28;20036;-67
2023/04/03 07:52:29;;;;;;;0.83;0.83;;;;;;;7.63;53.01;99902.59;5114773;28;20416;-66
2023/04/03 07:54:58;;;;;;;0.57;0.57;;;;;;;7.53;52.79;99889.75;5114117;28;20134;-66
2023/04/03 07:57:30;;;;;;;0.35;0.35;;;;;;;7.51;52.41;99902.41;5115711;28;20043;-66
2023/04/03 07:59:59;;;;;;;0.70;0.70;;;;;;;7.50;52.03;99898.19;5114682;28;20051;-66
2023/04/03 08:02:27;;;;;;;0.77;0.77;;;;;;;7.39;51.97;99910.69;5116008;27;20051;-68
2023/04/03 08:04:56;;;;;;;0.50;0.50;;;;;;;7.38;51.59;99923.38;5116075;28;20075;-68
2023/04/03 08:07:27;;;;;;;0.50;0.50;;;;;;;7.43;51.22;99912.47;5113883;28;20245;-67
2023/04/03 08:09:55;;;;;;;0.32;0.32;;;;;;;8.00;51.20;99917.53;5096873;28;20297;-68
2023/04/03 08:12:24;;;;;;;0.47;0.47;;;;;;;8.20;50.55;99911.84;5104292;28;20118;-69
2023/04/03 08:14:55;;;;;;;0.50;0.50;;;;;;;8.21;49.44;99898.28;5115892;28;20047;-66
2023/04/03 08:17:23;;;;;;;0.85;0.85;;;;;;;8.04;49.48;99891.31;5115936;28;20130;-66
2023/04/03 08:19:52;;;;;;;2.60;2.07;;;;;;;7.91;49.34;99899.63;5116278;28;20031;-69
2023/04/03 08:22:21;;;;;;;1.90;1.80;;;;;;;7.76;49.65;99901.94;5103664;28;20437;-66
2023/04/03 08:24:50;;;;;;;0.37;0.37;;;;;;;7.62;49.08;99913.59;5095490;28;20047;-69
2023/04/03 08:27:27;;;;;;;0.68;0.68;;;;;;;7.58;48.72;99908.47;5095395;28;20067;-66
2023/04/03 08:29:57;;;;;;;0.65;0.65;;;;;;;7.75;48.85;99905.31;5095328;28;20044;-66
2023/04/03 08:32:26;;;;;;;0.30;0.30;;;;;;;8.03;48.03;99911.63;5095391;28;20056;-68
2023/04/03 08:34:55;;;;;;;0.30;0.30;;;;;;;8.21;48.52;99913.53;5095585;28;20043;-67
2023/04/03 08:37:24;;;;;;;1.48;1.38;;;;;;;8.51;48.36;99903.75;5110621;28;20509;-66
2023/04/03 08:39:53;;;;;;;0.38;0.38;;;;;;;8.75;48.48;99909.13;5095185;28;20044;-67
2023/04/03 08:42:37;;;;;;;0.67;0.67;;;;;;;8.69;48.08;99906.50;5098954;28;20038;-68
2023/04/03 08:45:13;;;;;;;0.75;0.75;;;;;;;8.39;47.17;99914.66;5115475;28;20043;-66
2023/04/03 08:47:48;;;;;;;0.40;0.40;;;;;;;8.07;47.65;99916.78;5113646;28;20050;-69
2023/04/03 08:50:20;;;;;;;3.63;0.68;;;;;;;8.28;47.76;99917.91;5115097;28;20079;-66
2023/04/03 08:52:53;;;;;;;0.50;0.50;;;;;;;8.42;46.81;99914.66;5115609;27;20040;-66
2023/04/03 08:55:26;;;;;;;0.50;0.50;;;;;;;8.66;46.91;99902.22;5115591;28;20040;-71
2023/04/03 08:58:02;;;;;;;0.47;0.47;;;;;;;8.73;46.20;99915.88;5115267;28;20130;-68
2023/04/03 09:00:42;;;;;;;0.90;0.90;;;;;;;8.89;45.91;99914.34;5114492;28;20042;-67
2023/04/03 09:03:14;;;;;;;0.30;0.30;;;;;;;8.85;46.25;99910.91;5115429;28;20051;-68
2023/04/03 09:05:52;;;;;;;0.85;0.82;;;;;;;8.82;45.68;99910.03;5115163;28;20032;-66
2023/04/03 09:08:26;;;;;;;0.30;0.30;;;;;;;8.81;45.66;99909.16;5115286;28;20048;-66
2023/04/03 09:11:08;;;;;;;0.52;0.52;;;;;;;8.83;45.73;99917.66;5079835;28;20079;-66
2023/04/03 09:13:42;;;;;;;0.32;0.32;;;;;;;8.89;45.30;99912.66;5115174;28;20047;-68
2023/04/03 09:16:31;;;;;;;1.35;0.80;;;;;;;8.85;45.16;99930.41;5114831;28;20054;-66
2023/04/03 09:19:15;;;;;;;0.80;0.80;;;;;;;9.05;45.35;99917.03;5114674;28;20401;-64
2023/04/03 09:21:44;;;;;;;1.10;1.00;;;;;;;8.99;45.32;99928.88;5114893;28;20044;-69
2023/04/03 09:24:17;;;;;;;0.82;0.82;;;;;;;8.83;44.57;99915.13;5114998;28;20072;-64
2023/04/03 09:26:51;;;;;;;0.45;0.45;;;;;;;9.00;44.51;99916.13;5114693;28;20035;-69
2023/04/03 09:29:22;;;;;;;0.75;0.75;;;;;;;8.87;44.52;99932.16;5114767;28;20052;-66
2023/04/03 09:31:59;;;;;;;0.40;0.40;;;;;;;8.80;44.59;99922.75;5114592;28;20047;-64
2023/04/03 09:34:31;;;;;;;0.35;0.35;;;;;;;8.91;44.02;99923.69;5114450;28;20047;-67
2023/04/03 09:37:05;;;;;;;0.40;0.40;;;;;;;8.83;44.75;99932.94;5114627;28;20127;-64
2023/04/03 09:39:50;;;;;;;0.50;0.50;;;;;;;9.07;44.71;99937.44;5107989;28;20394;-66
2023/04/03 09:42:22;;;;;;;0.32;0.32;;;;;;;9.31;44.38;99942.72;5094441;28;20076;-69
2023/04/03 09:44:56;;;;;;;0.38;0.38;;;;;;;9.20;43.80;99945.19;5094315;28;20071;-68
2023/04/03 09:47:29;;;;;;;0.47;0.47;;;;;;;9.04;44.20;99938.25;5093992;28;20048;-66
2023/04/03 09:50:23;;;;;;;0.40;0.40;;;;;;;8.99;44.29;99934.81;5092940;28;20058;-66
2023/04/03 09:52:52;;;;;;;0.55;0.55;;;;;;;9.07;44.43;99943.34;5071327;28;20090;-68
2023/04/03 09:55:27;;;;;;;0.50;0.50;;;;;;;9.22;44.57;99935.88;5073563;28;20068;-67
2023/04/03 09:57:58;;;;;;;0.40;0.40;;;;;;;9.25;44.13;99933.34;5092138;28;20040;-65
2023/04/03 10:00:29;;;;;;;0.30;0.30;;;;;;;9.45;43.73;99947.09;5092533;28;20082;-67
2023/04/03 10:03:00;;;;;;;0.75;0.75;;;;;;;9.34;44.38;99938.50;5093508;28;20052;-63
2023/04/03 10:05:34;;;;;;;0.65;0.65;;;;;;;9.50;43.71;99948.84;5093064;28;20043;-70
2023/04/03 10:08:23;;;;;;;0.40;0.40;;;;;;;9.34;43.42;99948.72;5091637;28;20040;-67
2023/04/03 10:11:12;;;;;;;3.47;0.63;;;;;;;9.06;43.32;99946.75;5086044;28;20424;-67
2023/04/03 10:13:53;;;;;;;0.38;0.38;;;;;;;9.20;42.77;99944.31;5073732;28;20040;-67
2023/04/03 10:16:27;;;;;;;0.30;0.30;;;;;;;9.40;43.33;99948.78;5073280;28;20057;-64
2023/04/03 10:19:26;;;;;;;0.40;0.40;;;;;;;9.62;43.58;99948.94;5073334;28;20076;-65
2023/04/03 10:21:59;;;;;;;0.75;0.73;;;;;;;9.61;43.33;99952.31;5073746;28;20048;-65
2023/04/03 10:24:37;;;;;;;0.65;0.65;;;;;;;9.55;43.81;99948.00;5074877;28;20047;-65
2023/04/03 10:27:11;;;;;;;0.43;0.43;;;;;;;9.35;43.46;99965.72;5073620;28;20087;-65
2023/04/03 10:29:45;;;;;;;2.22;0.98;;;;;;;9.33;44.14;99953.78;5074000;28;20080;-67
2023/04/03 10:32:42;;;;;;;0.50;0.50;;;;;;;9.05;43.58;99965.41;5076642;28;20094;-68
2023/04/03 10:35:21;;;;;;;0.68;0.65;;;;;;;9.06;43.88;99972.22;5077347;28;20075;-66
2023/04/03 10:38:02;;;;;;;0.45;0.43;;;;;;;9.28;43.90;99953.75;5077178;28;20072;-68
2023/04/03 10:40:36;;;;;;;0.30;0.30;;;;;;;9.24;43.35;99964.75;5077575;28;20440;-66
2023/04/03 10:43:17;;;;;;;0.35;0.35;;;;;;;9.12;43.08;99967.16;5077457;28;20487;-66
2023/04/03 10:45:57;;;;;;;0.95;0.95;;;;;;;9.30;42.69;99967.34;5077390;28;20045;-68
2023/04/03 10:48:46;;;;;;;0.80;0.77;;;;;;;9.56;43.00;99959.06;5077418;28;20465;-66
2023/04/03 10:51:27;;;;;;;1.17;1.08;;;;;;;9.69;42.07;99960.88;5077458;28;20084;-66
2023/04/03 10:54:01;;;;;;;0.50;0.50;;;;;;;9.42;41.42;99952.19;5077016;28;20045;-68
2023/04/03 10:56:37;;;;;;;1.13;1.05;;;;;;;9.33;41.38;99951.25;5077373;28;20182;-65
2023/04/03 10:59:20;;;;;;;0.32;0.32;;;;;;;9.65;42.40;99948.94;5097146;28;20090;-64
2023/04/03 11:01:52;;;;;;;0.52;0.52;;;;;;;9.82;42.23;99947.34;5079743;28;20068;-65
2023/04/03 11:04:25;;;;;;;0.50;0.50;;;;;;;9.78;41.61;99948.19;5076753;28;20566;-67
2023/04/03 11:07:01;;;;;;;1.05;0.98;;;;;;;9.54;42.30;99953.09;5076584;28;20041;-66
2023/04/03 11:09:37;;;;;;;1.17;1.08;;;;;;;9.35;41.91;99960.63;5079601;28;20123;-66
2023/04/03 11:12:12;;;;;;;0.30;0.30;;;;;;;9.40;41.88;99948.78;5096884;28;20491;-66
2023/04/03 11:14:41;;;;;;;0.40;0.40;;;;;;;9.56;41.70;99969.25;5091638;28;20054;-65
2023/04/03 11:17:21;;;;;;;0.40;0.40;;;;;;;9.28;42.02;99956.31;5096810;28;20131;-66
2023/04/03 11:19:58;;;;;;;0.43;0.43;;;;;;;9.04;42.74;99963.72;5096988;28;20407;-71
2023/04/03 11:22:32;;;;;;;0.40;0.40;;;;;;;8.73;42.53;99957.44;5097126;28;20076;-69
2023/04/03 11:25:06;;;;;;;0.40;0.40;;;;;;;8.52;43.00;99971.59;5096829;28;20440;-65
2023/04/03 11:27:43;;;;;;;1.20;1.10;;;;;;;8.40;42.74;99961.25;5096734;28;20055;-67
2023/04/03 11:30:21;;;;;;;0.63;0.63;;;;;;;8.45;43.04;99967.25;5096585;28;20402;-68
2023/04/03 11:33:17;;;;;;;0.50;0.50;;;;;;;8.13;42.73;99957.50;5096509;28;20109;-64
2023/04/03 11:35:49;;;;;;;0.30;0.30;;;;;;;8.05;43.48;99958.25;5094990;28;20043;-65
2023/04/03 11:38:25;;;;;;;0.70;0.70;;;;;;;7.89;42.93;99959.69;5096440;28;20044;-65
2023/04/03 11:40:56;;;;;;;0.40;0.40;;;;;;;8.06;42.78;99965.88;5096376;28;20123;-64
2023/04/03 11:43:29;;;;;;;0.30;0.30;;;;;;;8.33;42.65;99956.94;5088926;28;20071;-63
2023/04/03 11:46:00;;;;;;;0.20;0.20;;;;;;;8.59;42.49;99948.78;5087873;28;20048;-66
2023/04/03 11:48:49;;;;;;;0.88;0.88;;;;;;;8.57;42.47;99957.25;5096404;28;20493;-63
2023/04/03 11:51:39;;;;;;;1.65;1.38;;;;;;;8.61;42.87;99954.75;5095621;28;20048;-65
2023/04/03 11:54:28;;;;;;;0.73;0.73;;;;;;;8.73;43.09;99976.97;5095694;28;20056;-72
2023/04/03 11:57:31;;;;;;;0.50;0.50;;;;;;;8.70;42.37;99975.22;5092444;28;20097;-64
2023/04/03 12:00:18;;;;;;;3.50;3.17;;;;;;;8.92;42.69;99978.00;5075741;28;20048;-65
2023/04/03 12:02:48;;;;;;;1.52;1.42;;;;;;;9.24;42.36;99971.53;5075562;28;20133;-64
2023/04/03 12:05:27;;;;;;;2.17;1.27;;;;;;;9.29;42.17;99970.72;5094554;28;20035;-63